Terminal Aerodrome Forecast
Issued by NWS Boston, MA

Home | Current Version | Previous Version | Text Only | Print | Product List | Glossary On
Versions: 1 2 3 4 5 6 7 8 9 10 11 12 13 14 15 16 17 18 19 20 21 22 23 24 25 26 27 28 29 30 31 32 33 34 35 36 37 38
390
FTUS41 KBOX 240524
TAFORH
TAF
KORH 240524Z 2406/2506 11005KT P6SM BKN100
     FM241000 08006KT P6SM -RA BKN050
     FM241500 07008KT 3SM -RA BR OVC008
     FM241800 06009KT P6SM VCSH OVC008
     FM242000 06009KT P6SM -RA OVC010
     FM242200 05009KT P6SM VCSH SCT008 OVC010=

USA.gov is the U.S. government's official web portal to all federal, state and local government web resources and services.